createdAt,value
2019-05-12T00:00:04.751Z,4.07
2019-05-12T00:02:32.188Z,4.13
2019-05-12T00:04:59.622Z,3.87
2019-05-12T00:07:28.573Z,3.70
2019-05-12T00:09:54.466Z,3.60
2019-05-12T00:12:21.888Z,3.90
2019-05-12T00:14:49.331Z,4.33
2019-05-12T00:17:18.852Z,4.43
2019-05-12T00:19:44.669Z,4.27
2019-05-12T00:22:12.209Z,3.90
2019-05-12T00:24:39.630Z,4.20
2019-05-12T00:27:08.543Z,3.93
2019-05-12T00:29:34.473Z,4.43
2019-05-12T00:32:01.902Z,3.90
2019-05-12T00:34:29.341Z,3.97
2019-05-12T00:36:57.726Z,3.93
2019-05-12T00:39:24.188Z,4.30
2019-05-12T00:41:51.628Z,4.10
2019-05-12T00:44:19.066Z,4.53
2019-05-12T00:46:48.566Z,4.30
2019-05-12T00:49:13.880Z,4.27
2019-05-12T00:51:41.285Z,4.67
2019-05-12T00:54:09.392Z,4.23
2019-05-12T00:56:36.117Z,5.10
2019-05-12T00:59:03.561Z,5.20
2019-05-12T01:01:30.960Z,4.97
2019-05-12T01:03:58.351Z,5.27
2019-05-12T01:06:27.683Z,4.97
2019-05-12T01:08:53.170Z,4.63
2019-05-12T01:11:20.590Z,5.47
2019-05-12T01:13:48.586Z,5.60
2019-05-12T01:16:15.450Z,5.53
2019-05-12T01:18:42.879Z,5.33
2019-05-12T01:21:10.280Z,5.20
2019-05-12T01:23:53.381Z,6.13
2019-05-12T01:26:05.129Z,5.43
2019-05-12T01:28:32.603Z,5.63
2019-05-12T01:31:00.025Z,6.00
2019-05-12T01:33:27.772Z,6.53
2019-05-12T01:35:54.847Z,6.33
2019-05-12T01:38:22.241Z,6.17
2019-05-12T01:40:49.670Z,6.70
2019-05-12T01:43:18.690Z,6.50
2019-05-12T01:45:44.482Z,6.93
2019-05-12T01:48:11.875Z,6.93
2019-05-12T01:50:39.359Z,7.20
2019-05-12T01:53:08.212Z,7.67
2019-05-12T01:55:34.120Z,7.13
2019-05-12T01:58:01.516Z,7.97
2019-05-12T02:00:28.932Z,7.60
2019-05-12T02:02:58.578Z,8.33
2019-05-12T02:05:23.776Z,7.87
2019-05-12T02:07:51.203Z,8.37
2019-05-12T02:10:18.603Z,8.37
2019-05-12T02:12:46.017Z,7.20
2019-05-12T02:15:13.478Z,8.37
2019-05-12T02:17:40.890Z,7.93
2019-05-12T02:20:08.312Z,8.30
2019-05-12T02:22:35.727Z,7.60
2019-05-12T02:25:03.139Z,8.20
2019-05-12T02:27:30.563Z,8.20
2019-05-12T02:29:58.616Z,7.53
2019-05-12T02:32:32.730Z,8.47
2019-05-12T02:34:54.749Z,9.30
2019-05-12T02:37:20.233Z,8.77
2019-05-12T02:39:47.649Z,8.00
2019-05-12T02:42:15.691Z,8.30
2019-05-12T02:44:44.353Z,7.93
2019-05-12T02:47:09.997Z,8.10
2019-05-12T02:49:37.329Z,7.37
2019-05-12T02:52:05.183Z,8.73
2019-05-12T02:54:50.890Z,8.07
2019-05-12T02:56:59.574Z,8.27
2019-05-12T02:59:26.992Z,8.33
2019-05-12T03:01:55.205Z,8.37
2019-05-12T03:04:24.552Z,8.03
2019-05-12T03:06:49.253Z,7.47
2019-05-12T03:09:16.695Z,7.83
2019-05-12T03:11:44.835Z,7.37
2019-05-12T03:14:15.337Z,7.90
2019-05-12T03:16:38.912Z,7.90
2019-05-12T03:19:06.326Z,7.97
2019-05-12T03:21:35.298Z,7.37
2019-05-12T03:24:01.167Z,7.70
2019-05-12T03:26:28.582Z,7.50
2019-05-12T03:28:56.002Z,7.70
2019-05-12T03:31:30.644Z,7.70
2019-05-12T03:33:54.103Z,8.07
2019-05-12T03:36:18.641Z,7.97
2019-05-12T03:38:45.666Z,7.20
2019-05-12T03:41:14.635Z,7.17
2019-05-12T03:43:40.469Z,7.57
2019-05-12T03:46:07.895Z,7.47
2019-05-12T03:48:35.285Z,8.10
2019-05-12T03:51:05.453Z,8.10
2019-05-12T03:53:30.107Z,7.57
2019-05-12T03:55:57.531Z,8.07
2019-05-12T03:58:25.735Z,7.37
2019-05-12T04:00:55.203Z,7.77
2019-05-12T04:03:19.787Z,7.27
2019-05-12T04:05:47.199Z,8.43
2019-05-12T04:08:15.775Z,7.60
2019-05-12T04:10:45.177Z,7.40
2019-05-12T04:13:09.488Z,7.73
2019-05-12T04:15:36.856Z,7.60
2019-05-12T04:18:05.494Z,7.17
2019-05-12T04:20:35.202Z,7.60
2019-05-12T04:22:59.082Z,7.43
2019-05-12T04:25:45.752Z,7.57
2019-05-12T04:27:54.328Z,6.57
2019-05-12T04:30:24.706Z,7.03
2019-05-12T04:32:48.770Z,6.77
2019-05-12T04:35:16.211Z,7.23
2019-05-12T04:37:44.912Z,7.20
2019-05-12T04:40:14.572Z,6.53
2019-05-12T04:42:38.438Z,6.73
2019-05-12T04:45:05.886Z,6.60
2019-05-12T04:47:34.932Z,6.57
2019-05-12T04:50:00.731Z,7.10
2019-05-12T04:52:28.146Z,6.47
2019-05-12T04:54:55.568Z,6.97
2019-05-12T04:57:25.376Z,6.30
2019-05-12T04:59:50.357Z,6.23
2019-05-12T05:02:17.785Z,7.07
2019-05-12T05:04:45.219Z,6.23
2019-05-12T05:07:14.997Z,6.53
2019-05-12T05:09:40.069Z,7.53
2019-05-12T05:12:07.486Z,6.87
2019-05-12T05:14:34.917Z,6.27
2019-05-12T05:17:05.658Z,6.20
2019-05-12T05:19:29.791Z,6.50
2019-05-12T05:21:57.160Z,6.23
2019-05-12T05:24:24.597Z,6.40
2019-05-12T05:26:53.946Z,6.27
2019-05-12T05:29:19.430Z,5.47
2019-05-12T05:31:46.861Z,6.00
2019-05-12T05:34:14.888Z,7.03
2019-05-12T05:36:43.371Z,4.80
2019-05-12T05:39:09.125Z,5.30
2019-05-12T05:41:40.346Z,5.10
2019-05-12T05:44:03.971Z,4.23
2019-05-12T05:46:33.453Z,4.60
2019-05-12T05:48:58.804Z,3.87
2019-05-12T05:51:26.200Z,4.33
2019-05-12T05:53:54.075Z,4.47
2019-05-12T05:56:27.159Z,4.40
2019-05-12T05:58:51.850Z,3.83
2019-05-12T06:01:15.910Z,4.00
2019-05-12T06:03:44.120Z,4.33
2019-05-12T06:06:12.612Z,3.83
2019-05-12T06:08:38.154Z,4.07
2019-05-12T06:11:08.425Z,3.70
2019-05-12T06:13:34.530Z,3.80
2019-05-12T06:16:00.417Z,3.53
2019-05-12T06:18:29.021Z,3.80
2019-05-12T06:20:55.232Z,3.77
2019-05-12T06:23:24.039Z,3.60
2019-05-12T06:25:51.593Z,4.10
2019-05-12T06:28:17.499Z,3.60
2019-05-12T06:30:47.637Z,3.90
2019-05-12T06:33:14.241Z,3.57
2019-05-12T06:35:42.304Z,3.60
2019-05-12T06:38:07.225Z,3.80
2019-05-12T06:40:41.059Z,4.13
2019-05-12T06:43:04.119Z,3.70
2019-05-12T06:45:33.998Z,3.83
2019-05-12T06:47:56.916Z,3.10
2019-05-12T06:50:28.604Z,3.40
2019-05-12T06:52:53.123Z,3.50
2019-05-12T06:55:19.198Z,3.17
2019-05-12T06:57:50.101Z,2.93
2019-05-12T07:00:14.595Z,2.50
2019-05-12T07:02:51.700Z,2.77
2019-05-12T07:05:08.886Z,3.10
2019-05-12T07:07:42.002Z,2.47
2019-05-12T07:10:11.599Z,2.40
2019-05-12T07:12:33.592Z,2.80
2019-05-12T07:14:58.862Z,2.63
2019-05-12T07:17:43.969Z,2.40
2019-05-12T07:20:05.587Z,2.50
2019-05-12T07:22:43.850Z,2.63
2019-05-12T07:25:00.443Z,2.50
2019-05-12T07:27:36.610Z,2.70
2019-05-12T07:29:55.261Z,2.60
2019-05-12T07:32:24.624Z,2.47
2019-05-12T07:34:50.091Z,2.50
2019-05-12T07:37:17.499Z,2.40
2019-05-12T07:39:49.322Z,2.10
2019-05-12T07:42:13.352Z,2.40
2019-05-12T07:44:41.257Z,2.50
2019-05-12T07:47:07.144Z,2.33
2019-05-12T07:49:38.539Z,1.60
2019-05-12T07:52:03.620Z,1.93
2019-05-12T07:54:34.593Z,2.00
2019-05-12T07:56:56.850Z,2.03
2019-05-12T07:59:28.262Z,1.67
2019-05-12T08:01:52.628Z,1.90
2019-05-12T08:04:19.064Z,1.70
2019-05-12T08:06:46.942Z,1.90
2019-05-12T08:09:13.894Z,1.87
2019-05-12T08:11:43.487Z,1.80
2019-05-12T08:14:13.811Z,1.20
2019-05-12T08:16:37.931Z,1.60
2019-05-12T08:19:08.300Z,1.87
2019-05-12T08:21:37.025Z,2.00
2019-05-12T08:24:00.193Z,1.80
2019-05-12T08:26:27.594Z,1.80
2019-05-12T08:28:55.025Z,2.10
2019-05-12T08:31:23.620Z,1.77
2019-05-12T08:33:49.872Z,1.80
2019-05-12T08:36:17.289Z,1.40
2019-05-12T08:38:44.698Z,1.70
2019-05-12T08:41:14.359Z,1.43
2019-05-12T08:43:40.621Z,1.50
2019-05-12T08:46:11.912Z,1.90
2019-05-12T08:48:34.380Z,1.80
2019-05-12T08:51:05.370Z,1.60
2019-05-12T08:53:29.162Z,1.80
2019-05-12T08:55:56.587Z,1.90
2019-05-12T08:58:31.608Z,1.63
2019-05-12T09:00:51.397Z,1.60
2019-05-12T09:03:20.400Z,1.63
2019-05-12T09:05:46.268Z,1.67
2019-05-12T09:08:13.950Z,1.90
2019-05-12T09:10:41.094Z,1.70
2019-05-12T09:13:08.519Z,1.77
2019-05-12T09:15:35.916Z,1.90
2019-05-12T09:18:04.877Z,1.80
2019-05-12T09:20:30.743Z,1.70
2019-05-12T09:23:00.538Z,1.70
2019-05-12T09:25:25.565Z,2.27
2019-05-12T09:27:54.234Z,1.80
2019-05-12T09:30:26.378Z,1.73
2019-05-12T09:32:55.955Z,1.80
2019-05-12T09:35:23.471Z,1.70
2019-05-12T09:37:48.638Z,2.50
2019-05-12T09:40:20.584Z,2.10
2019-05-12T09:42:44.103Z,2.13
2019-05-12T09:45:10.938Z,2.03
2019-05-12T09:47:38.334Z,1.90
2019-05-12T09:50:09.738Z,2.10
2019-05-12T09:52:35.605Z,1.83
2019-05-12T09:55:04.183Z,2.10
2019-05-12T09:57:34.727Z,2.00
2019-05-12T09:59:59.541Z,2.20
2019-05-12T10:02:25.406Z,1.77
2019-05-12T10:04:58.757Z,2.10
2019-05-12T10:07:20.121Z,2.20
2019-05-12T10:09:49.306Z,2.23
2019-05-12T10:12:14.956Z,1.93
2019-05-12T10:14:45.974Z,2.37
2019-05-12T10:17:09.802Z,1.90
2019-05-12T10:19:37.204Z,1.80
2019-05-12T10:22:04.632Z,1.73
2019-05-12T10:24:40.604Z,1.83
2019-05-12T10:27:00.288Z,1.63
2019-05-12T10:29:30.494Z,1.10
2019-05-12T10:31:55.136Z,1.10
2019-05-12T10:34:24.041Z,1.47
2019-05-12T10:36:49.952Z,1.23
2019-05-12T10:39:17.371Z,1.77
2019-05-12T10:41:44.781Z,1.30
2019-05-12T10:44:13.928Z,1.20
2019-05-12T10:46:42.413Z,1.30
2019-05-12T10:49:07.655Z,1.27
2019-05-12T10:51:35.069Z,1.50
2019-05-12T10:54:12.098Z,1.37
2019-05-12T10:56:29.956Z,1.23
2019-05-12T10:58:57.353Z,1.37
2019-05-12T11:01:24.787Z,1.53
2019-05-12T11:03:52.287Z,1.30
2019-05-12T11:06:19.587Z,1.80
2019-05-12T11:08:51.138Z,1.50
2019-05-12T11:11:14.455Z,1.40
2019-05-12T11:13:48.284Z,1.70
2019-05-12T11:16:09.277Z,1.57
2019-05-12T11:18:36.696Z,1.40
2019-05-12T11:21:04.124Z,1.60
2019-05-12T11:23:31.521Z,1.43
2019-05-12T11:25:58.944Z,1.50
2019-05-12T11:28:26.342Z,1.40
2019-05-12T11:30:53.748Z,1.73
2019-05-12T11:33:23.604Z,2.03
2019-05-12T11:35:48.610Z,1.43
2019-05-12T11:38:16.034Z,1.67
2019-05-12T11:40:43.875Z,1.23
2019-05-12T11:43:10.876Z,1.50
2019-05-12T11:45:38.288Z,1.90
2019-05-12T11:48:09.914Z,1.73
2019-05-12T11:50:33.121Z,1.67
2019-05-12T11:53:00.552Z,1.53
2019-05-12T11:55:31.609Z,1.77
2019-05-12T11:58:00.393Z,1.50
2019-05-12T12:00:24.187Z,1.40
2019-05-12T12:02:50.201Z,1.60
2019-05-12T12:05:17.641Z,1.70
2019-05-12T12:07:51.333Z,1.70
2019-05-12T12:10:14.231Z,1.40
2019-05-12T12:12:45.286Z,1.93
2019-05-12T12:15:07.277Z,1.40
2019-05-12T12:17:35.776Z,1.60
2019-05-12T12:20:03.795Z,1.60
2019-05-12T12:22:29.903Z,1.33
2019-05-12T12:24:56.949Z,1.70
2019-05-12T12:27:24.359Z,1.70
2019-05-12T12:29:54.233Z,1.63
2019-05-12T12:32:20.483Z,1.50
2019-05-12T12:34:46.615Z,1.40
2019-05-12T12:37:19.018Z,1.50
2019-05-12T12:39:43.485Z,1.50
2019-05-12T12:42:09.311Z,1.60
2019-05-12T12:44:36.715Z,1.40
2019-05-12T12:47:04.150Z,1.80
2019-05-12T12:49:33.757Z,1.50
2019-05-12T12:51:58.983Z,1.93
2019-05-12T12:54:26.403Z,1.70
2019-05-12T12:56:53.990Z,1.70
2019-05-12T12:59:21.225Z,1.70
2019-05-12T13:01:48.625Z,1.80
2019-05-12T13:04:16.047Z,2.03
2019-05-12T13:06:43.825Z,1.70
2019-05-12T13:09:18.236Z,1.77
2019-05-12T13:11:38.284Z,1.93
2019-05-12T13:14:05.693Z,1.90
2019-05-12T13:16:34.336Z,1.83
2019-05-12T13:19:03.788Z,1.93
2019-05-12T13:21:27.945Z,1.83
2019-05-12T13:23:55.364Z,1.60
2019-05-12T13:26:23.884Z,2.00
2019-05-12T13:28:53.424Z,1.80
2019-05-12T13:31:17.613Z,1.87
2019-05-12T13:33:49.411Z,1.70
2019-05-12T13:36:13.686Z,2.40
2019-05-12T13:38:40.579Z,1.80
2019-05-12T13:41:09.663Z,1.90
2019-05-12T13:43:34.787Z,1.90
2019-05-12T13:46:02.213Z,2.17
2019-05-12T13:48:29.614Z,1.93
2019-05-12T13:51:07.414Z,1.90
2019-05-12T13:53:24.499Z,2.10
2019-05-12T13:55:53.753Z,2.07
2019-05-12T13:58:19.318Z,2.00
2019-05-12T14:01:00.441Z,2.00
2019-05-12T14:03:14.241Z,2.10
2019-05-12T14:05:50.118Z,2.40
2019-05-12T14:08:08.959Z,2.10
2019-05-12T14:10:37.606Z,3.20
2019-05-12T14:13:03.768Z,1.90
2019-05-12T14:15:33.913Z,2.23
2019-05-12T14:17:58.589Z,2.10
2019-05-12T14:20:25.998Z,1.80
2019-05-12T14:22:53.956Z,1.90
2019-05-12T14:25:26.205Z,2.40
2019-05-12T14:27:48.346Z,2.03
2019-05-12T14:30:15.760Z,2.20
2019-05-12T14:32:43.989Z,1.80
2019-05-12T14:35:10.578Z,2.23
2019-05-12T14:37:40.177Z,2.00
2019-05-12T14:40:05.495Z,1.97
2019-05-12T14:42:39.395Z,1.90
2019-05-12T14:45:01.747Z,1.97
2019-05-12T14:47:30.266Z,2.00
2019-05-12T14:49:56.642Z,2.10
2019-05-12T14:52:24.016Z,2.07
2019-05-12T14:54:54.048Z,2.57
2019-05-12T14:57:18.988Z,2.17
2019-05-12T14:59:46.396Z,1.83
2019-05-12T15:02:13.831Z,2.03
2019-05-12T15:04:43.417Z,2.07
2019-05-12T15:07:10.182Z,1.80
2019-05-12T15:09:36.128Z,2.50
2019-05-12T15:12:03.707Z,2.00
2019-05-12T15:14:33.664Z,2.20
2019-05-12T15:16:58.439Z,2.27
2019-05-12T15:19:29.677Z,2.27
2019-05-12T15:21:55.667Z,2.30
2019-05-12T15:24:24.559Z,2.10
2019-05-12T15:26:56.402Z,2.27
2019-05-12T15:29:20.063Z,2.07
2019-05-12T15:31:53.068Z,2.40
2019-05-12T15:34:14.287Z,2.00
2019-05-12T15:36:43.640Z,2.20
2019-05-12T15:39:07.614Z,2.23
2019-05-12T15:41:35.041Z,1.67
2019-05-12T15:44:03.350Z,1.90
2019-05-12T15:46:33.030Z,1.97
2019-05-12T15:48:57.261Z,1.90
2019-05-12T15:51:24.663Z,2.10
2019-05-12T15:53:57.339Z,2.10
2019-05-12T15:56:25.410Z,2.25
2019-05-12T15:58:46.923Z,2.50
2019-05-12T16:01:16.953Z,2.10
2019-05-12T16:03:43.800Z,2.17
2019-05-12T16:06:11.803Z,2.47
2019-05-12T16:08:36.574Z,3.40
2019-05-12T16:11:05.095Z,2.90
2019-05-12T16:13:33.647Z,3.13
2019-05-12T16:16:03.554Z,3.50
2019-05-12T16:18:26.622Z,5.40
2019-05-12T16:20:53.756Z,3.23
2019-05-12T16:23:24.956Z,3.20
2019-05-12T16:25:48.526Z,2.93
2019-05-12T16:28:23.211Z,3.00
2019-05-12T16:30:43.944Z,2.50
2019-05-12T16:33:12.120Z,2.37
2019-05-12T16:35:38.167Z,2.87
2019-05-12T16:38:13.932Z,2.90
2019-05-12T16:40:34.371Z,2.47
2019-05-12T16:43:00.435Z,2.80
2019-05-12T16:45:27.836Z,3.20
2019-05-12T16:47:59.331Z,3.20
2019-05-12T16:50:27.309Z,3.00
2019-05-12T16:52:50.099Z,2.83
2019-05-12T16:55:17.493Z,2.53
2019-05-12T16:57:51.481Z,2.40
2019-05-12T17:00:13.969Z,2.30
2019-05-12T17:02:42.201Z,2.30
2019-05-12T17:05:18.172Z,2.10
2019-05-12T17:07:34.651Z,2.40
2019-05-12T17:10:11.182Z,2.07
2019-05-12T17:12:31.833Z,2.60
2019-05-12T17:14:59.631Z,2.30
2019-05-12T17:17:24.724Z,2.53
2019-05-12T17:19:53.865Z,1.90
2019-05-12T17:22:19.144Z,2.30
2019-05-12T17:24:48.906Z,2.50
2019-05-12T17:27:23.865Z,2.30
2019-05-12T17:29:43.746Z,2.30
2019-05-12T17:32:13.257Z,2.10
2019-05-12T17:34:40.362Z,2.50
2019-05-12T17:37:06.008Z,2.63
2019-05-12T17:39:35.756Z,2.37
2019-05-12T17:42:00.841Z,2.10
2019-05-12T17:44:31.307Z,2.07
2019-05-12T17:46:55.661Z,2.10
2019-05-12T17:49:30.917Z,2.17
2019-05-12T17:51:53.556Z,2.27
2019-05-12T17:54:21.860Z,2.00
2019-05-12T17:56:51.364Z,1.90
2019-05-12T17:59:24.449Z,2.17
2019-05-12T18:01:46.212Z,2.00
2019-05-12T18:04:14.033Z,1.90
2019-05-12T18:06:41.063Z,2.20
2019-05-12T18:09:14.935Z,1.83
2019-05-12T18:11:35.935Z,2.27
2019-05-12T18:14:06.804Z,2.10
2019-05-12T18:16:30.781Z,1.80
2019-05-12T18:18:58.189Z,1.70
2019-05-12T18:21:30.859Z,1.60
2019-05-12T18:23:53.668Z,1.80
2019-05-12T18:26:20.462Z,1.70
2019-05-12T18:28:47.910Z,1.53
2019-05-12T18:31:15.346Z,1.70
2019-05-12T18:33:51.632Z,1.80
2019-05-12T18:36:10.178Z,1.90
2019-05-12T18:38:37.607Z,2.63
2019-05-12T18:41:05.028Z,2.90
2019-05-12T18:43:34.479Z,2.10
2019-05-12T18:46:05.585Z,2.20
2019-05-12T18:48:27.295Z,2.00
2019-05-12T18:50:54.697Z,2.33
2019-05-12T18:53:27.965Z,2.10
2019-05-12T18:55:49.527Z,1.93
2019-05-12T18:58:21.635Z,1.90
2019-05-12T19:00:44.398Z,2.00
2019-05-12T19:03:13.849Z,2.60
2019-05-12T19:05:39.237Z,2.27
2019-05-12T19:08:06.663Z,2.63
2019-05-12T19:10:38.587Z,2.17
2019-05-12T19:13:05.673Z,2.10
2019-05-12T19:15:28.912Z,2.10
2019-05-12T19:17:56.353Z,2.00
2019-05-12T19:20:24.195Z,2.10
2019-05-12T19:22:57.342Z,2.60
2019-05-12T19:25:19.445Z,2.20
2019-05-12T19:27:49.514Z,2.00
2019-05-12T19:30:13.931Z,2.30
2019-05-12T19:32:40.859Z,2.37
2019-05-12T19:35:09.422Z,2.43
2019-05-12T19:37:35.696Z,2.30
2019-05-12T19:40:11.467Z,2.33
2019-05-12T19:42:30.549Z,2.60
2019-05-12T19:44:59.935Z,2.50
2019-05-12T19:47:33.240Z,2.63
2019-05-12T19:49:53.611Z,2.30
2019-05-12T19:52:20.229Z,2.20
2019-05-12T19:54:47.691Z,2.93
2019-05-12T19:57:21.633Z,2.57
2019-05-12T19:59:50.578Z,2.40
2019-05-12T20:02:14.312Z,2.50
2019-05-12T20:04:43.259Z,2.50
2019-05-12T20:07:06.846Z,2.23
2019-05-12T20:09:34.288Z,2.60
2019-05-12T20:12:08.488Z,2.50
2019-05-12T20:14:29.106Z,2.40
2019-05-12T20:16:56.625Z,2.47
2019-05-12T20:19:25.463Z,2.30
2019-05-12T20:21:54.157Z,2.60
2019-05-12T20:24:18.883Z,3.10
2019-05-12T20:26:46.286Z,2.50
2019-05-12T20:29:13.916Z,2.70
2019-05-12T20:31:44.542Z,2.90
2019-05-12T20:34:11.021Z,2.50
2019-05-12T20:36:35.958Z,2.03
2019-05-12T20:39:09.447Z,2.57
2019-05-12T20:41:30.812Z,2.50
2019-05-12T20:43:58.237Z,2.80
2019-05-12T20:46:26.064Z,2.40
2019-05-12T20:48:53.825Z,2.87
2019-05-12T20:51:20.514Z,2.63
2019-05-12T20:53:47.942Z,3.00
2019-05-12T20:56:20.005Z,2.80
2019-05-12T20:58:44.303Z,3.00
2019-05-12T21:01:10.200Z,2.70
2019-05-12T21:03:39.735Z,3.07
2019-05-12T21:06:05.055Z,2.90
2019-05-12T21:08:33.881Z,2.70
2019-05-12T21:10:59.931Z,2.80
2019-05-12T21:13:31.788Z,2.90
2019-05-12T21:15:54.770Z,3.13
2019-05-12T21:18:23.763Z,2.80
2019-05-12T21:20:52.278Z,3.00
2019-05-12T21:23:17.052Z,2.70
2019-05-12T21:25:52.161Z,3.03
2019-05-12T21:28:14.646Z,2.90
2019-05-12T21:30:42.445Z,2.73
2019-05-12T21:33:06.751Z,3.00
2019-05-12T21:35:40.880Z,2.60
2019-05-12T21:38:03.971Z,2.67
2019-05-12T21:40:30.730Z,2.60
2019-05-12T21:42:56.443Z,2.73
2019-05-12T21:45:26.737Z,2.60
2019-05-12T21:47:51.284Z,3.10
2019-05-12T21:50:24.112Z,3.00
2019-05-12T21:52:46.114Z,2.60
2019-05-12T21:55:21.603Z,2.70
2019-05-12T21:57:43.563Z,2.77
2019-05-12T22:00:10.711Z,2.80
2019-05-12T22:02:35.795Z,3.10
2019-05-12T22:05:04.214Z,2.77
2019-05-12T22:07:37.993Z,2.60
2019-05-12T22:09:58.071Z,2.80
2019-05-12T22:12:28.586Z,3.03
2019-05-12T22:14:54.319Z,3.03
2019-05-12T22:17:20.349Z,2.87
2019-05-12T22:19:47.777Z,3.30
2019-05-12T22:22:19.543Z,2.90
2019-05-12T22:24:44.176Z,2.67
2019-05-12T22:27:16.108Z,3.33
2019-05-12T22:29:37.469Z,3.47
2019-05-12T22:32:05.352Z,2.80
2019-05-12T22:34:40.309Z,2.73
2019-05-12T22:36:59.756Z,2.90
2019-05-12T22:39:27.151Z,3.13
2019-05-12T22:41:56.565Z,2.70
2019-05-12T22:44:25.094Z,3.00
2019-05-12T22:46:51.405Z,2.87
2019-05-12T22:49:21.128Z,2.83
2019-05-12T22:51:46.595Z,2.80
2019-05-12T22:54:13.717Z,2.93
2019-05-12T22:56:41.095Z,2.80
2019-05-12T22:59:08.499Z,2.80
2019-05-12T23:01:41.368Z,2.70
2019-05-12T23:04:03.887Z,2.80
2019-05-12T23:06:33.476Z,3.00
2019-05-12T23:08:58.150Z,3.20
2019-05-12T23:11:32.312Z,2.70
2019-05-12T23:13:53.350Z,2.63
2019-05-12T23:16:26.188Z,3.27
2019-05-12T23:18:47.827Z,2.57
2019-05-12T23:21:17.652Z,2.90
2019-05-12T23:23:43.588Z,2.77
2019-05-12T23:26:11.001Z,3.07
2019-05-12T23:28:40.562Z,2.83
2019-05-12T23:31:05.849Z,2.80
2019-05-12T23:33:36.745Z,2.90
2019-05-12T23:36:00.693Z,3.17
2019-05-12T23:38:28.136Z,3.20
2019-05-12T23:40:55.536Z,3.07
2019-05-12T23:43:23.756Z,3.20
2019-05-12T23:45:50.370Z,3.10
2019-05-12T23:48:17.815Z,3.30
2019-05-12T23:50:45.217Z,3.17
2019-05-12T23:53:14.015Z,3.00
2019-05-12T23:55:40.059Z,3.23
2019-05-12T23:58:07.497Z,3.23
